Weather observations for the past three days for
Hayward, Hayward Air Terminal
Metric (Imperial)
Date Time (pdt) Wind (kph) Vis. (km) Weather Sky Cond. Temperature (ºC) Relative Humidity Wind Chill (°C) Heat Index (°C) Pressure Precipitation (cm)
Air Dwpt 6 hour altimeter (cm) sea level (mb) 1 hr 3 hr 6 hr
Max. Min.
04 04:54 SE 9 16.09 Overcast BKN019 OVC032 12.8 8.9 13.9 12.2 77% 76.1 1015.5
04 03:54 SE 9 16.09 Overcast BKN023 OVC028 12.2 8.9 80% 76.1 1015.5
04 02:54 SW 6 16.09 Mostly Cloudy SCT020 BKN027 BKN035 13.3 9.4 77% 76.1 1015.4
04 01:54 W 11 16.09 Partly Cloudy SCT020 13.3 9.4 77% 76.1 1015.4
04 00:54 SW 6 16.09 A Few Clouds FEW019 FEW025 13.3 9.4 77% 76.12 1015.9
03 23:54 W 11 16.09 Mostly Cloudy BKN028 13.3 8.9 75% 76.12 1016.0
03 22:54 SW 9 16.09 A Few Clouds FEW050 13.3 8.9 17.2 13.3 75% 76.12 1015.7
03 21:54 SW 13 16.09 Overcast FEW024 OVC049 13.9 9.4 74% 76.1 1015.4
03 20:54 W 11 16.09 Overcast OVC050 14.4 8.3 67% 76.05 1014.9
03 19:54 W 17 16.09 Overcast OVC049 15 8.3 64% 76 1014.3
03 18:54 W 17 16.09 Mostly Cloudy BKN050 15.6 8.3 62% 75.97 1013.9
03 17:54 W 17 16.09 Mostly Cloudy BKN048 16.1 8.3 60% 76 1014.0
03 16:54 W 19 G 37 16.09 Mostly Cloudy BKN043 17.2 8.3 17.8 14.4 56% 75.97 1013.6
03 15:54 W 20 16.09 Overcast OVC039 17.2 8.3 56% 75.97 1013.7
03 14:54 W 19 G 37 16.09 Overcast BKN040 OVC050 17.2 8.3 56% 75.97 1013.9
03 13:54 W 17 16.09 Overcast OVC035 16.1 8.9 63% 75.97 1013.9
03 12:54 W 13 16.09 Overcast OVC043 17.2 9.4 60% 76 1014.2
03 11:54 W 15 16.09 Mostly Cloudy SCT015 BKN033 16.7 10 65% 76 1014.3
03 10:54 Vrbl 9 16.09 Mostly Cloudy FEW015 BKN022 BKN044 14.4 10.6 15.6 12.8 78% 76.02 1014.5
03 09:54 SW 13 16.09 Overcast SCT020 BKN027 OVC040 13.9 10 78% 76.02 1014.4
03 08:54 W 13 16.09 Overcast FEW015 BKN029 OVC034 12.8 10.6 87% 76 1014.2
03 07:54 SW 11 16.09 Overcast SCT018 OVC028 13.3 9.4 77% 75.95 1013.6
03 06:54 SW 11 16.09 Overcast FEW018 OVC032 13.3 9.4 77% 75.92 1013.0
03 05:54 W 9 16.09 Overcast OVC027 13.3 8.9 75% 75.87 1012.3
03 04:54 W 11 16.09 Overcast FEW017 OVC027 13.3 9.4 13.3 12.8 77% 75.84 1012.2
03 03:54 W 11 16.09 Overcast FEW018 OVC024 12.8 9.4 80% 75.87 1012.3
03 02:54 W 13 16.09 Overcast OVC020 13.3 8.9 75% 75.87 1012.3
03 01:54 W 13 16.09 Overcast OVC018 13.3 9.4 77% 75.9 1012.7
03 00:54 W 13 16.09 Overcast OVC020 13.3 8.9 75% 75.92 1013.1
02 23:54 W 13 16.09 Overcast OVC021 13.3 8.9 75% 75.92 1013.2
02 22:54 W 15 16.09 Overcast OVC018 13.3 8.9 15.6 13.3 75% 75.95 1013.5
02 21:54 W 19 16.09 Overcast BKN019 OVC026 13.3 8.9 75% 75.95 1013.5
02 20:54 W 19 16.09 Overcast OVC020 13.3 9.4 77% 75.92 1013.3
02 19:54 W 19 16.09 Overcast OVC020 13.3 8.9 75% 75.9 1012.7
02 18:54 W 17 16.09 Mostly Cloudy BKN019 13.9 8.9 72% 75.9 1012.8
02 17:54 NW 20 16.09 Partly Cloudy SCT019 SCT026 15 9.4 69% 75.9 1012.8
02 16:54 W 22 16.09 A Few Clouds FEW017 FEW023 15.6 9.4 16.7 14.4 67% 75.92 1013.0
02 15:54 W 24 16.09 Partly Cloudy FEW020 SCT028 15.6 9.4 67% 75.97 1013.8
02 14:54 W 19 16.09 Overcast OVC027 15.6 10 70% 76.02 1014.4
02 13:54 W 19 16.09 Overcast SCT019 OVC025 16.1 10.6 70% 76.05 1014.8
02 12:54 W 17 16.09 Overcast SCT016 OVC024 15.6 10.6 72% 76.1 1015.3
02 11:54 W 17 16.09 Overcast SCT014 OVC022 15 10.6 75% 76.1 1015.4
02 10:54 W 20 16.09 Overcast OVC018 14.4 10.6 14.4 12.8 78% 76.1 1015.3
02 09:54 W 11 16.09 Overcast OVC015 13.9 10.6 81% 76.07 1015.2
02 08:54 W 13 16.09 Overcast OVC016 13.9 10.6 81% 76.05 1014.9
02 07:54 W 13 16.09 Overcast OVC014 13.3 10 81% 76.02 1014.5
02 06:54 SW 13 16.09 Overcast OVC013 13.3 10 81% 76 1014.2
02 05:54 W 13 16.09 Overcast OVC012 13.3 10 81% 75.97 1013.7
02 04:54 W 9 16.09 Overcast OVC014 12.8 10 13.3 12.8 83% 75.97 1013.8
02 03:54 W 11 16.09 Overcast OVC012 12.8 10 83% 75.97 1013.8
02 02:54 W 9 16.09 Overcast OVC012 13.3 10 81% 76 1014.2
02 01:54 W 13 16.09 Overcast OVC012 13.3 10 81% 76.05 1014.7
02 00:54 W 19 14.48 Overcast OVC010 12.8 10.6 87% 76.07 1015.0
01 23:54 W 13 16.09 Overcast OVC010 12.8 10.6 87% 76.07 1015.0
01 22:54 W 15 16.09 Overcast OVC011 13.3 10.6 17.2 13.3 84% 76.07 1015.3
01 21:54 W 9 16.09 Overcast OVC011 13.3 10.6 84% 76.07 1015.2
01 20:54 W 13 16.09 Overcast OVC011 13.3 11.1 87% 76.02 1014.5
01 19:54 W 17 16.09 Mostly Cloudy BKN012 13.9 11.1 83% 76 1014.1
01 18:54 W 19 16.09 Partly Cloudy SCT014 15 11.1 78% 76 1014.0
01 17:54 NW 22 G 41 16.09 Fair CLR 16.7 11.7 73% 75.97 1014.0
01 16:54 NW 22 G 41 16.09 Fair CLR 17.2 11.1 18.3 13.9 68% 76 1014.0
01 15:54 W 20 G 41 16.09 Fair CLR 17.8 11.7 68% 76.02 1014.5
01 14:54 NW 20 G 31 16.09 Fair CLR 17.8 12.2 70% 76.1 1015.3
01 13:54 W 19 G 30 16.09 Fair CLR 17.2 11.7 70% 76.12 1015.9
01 12:54 W 15 16.09 Partly Cloudy SCT014 16.1 11.7 75% 76.17 1016.4
01 11:54 NW 17 16.09 Mostly Cloudy FEW013 BKN015 15 11.1 78% 76.2 1017.0
01 10:54 W 19 16.09 Overcast OVC010 14.4 11.1 14.4 12.8 81% 76.23 1017.3
01 09:54 W 11 16.09 Overcast OVC014 13.9 10 78% 76.23 1017.1
01 08:54 W 11 16.09 Overcast OVC014 13.3 10 81% 76.2 1016.7
01 07:54 SW 9 16.09 Overcast OVC013 12.8 10 83% 76.15 1016.3
01 06:54 S 7 16.09 Overcast OVC012 12.8 10 83% 76.12 1015.9
01 05:54 W 7 16.09 Overcast OVC012 12.8 10 83% 76.1 1015.5
Date Time (pdt) Wind (kph) Vis. (km) Weather Sky Cond. Air Dwpt Max. Min. Relative Humidity Wind Chill (°C) Heat Index (°C) altimeter (cm) sea level (mb) 1 hr 3 hr 6 hr
6 hour
Temperature (ºC) Pressure Precipitation (cm)